Weather at East Midlands Airport

Public forecast

Using degrees Celsius for public forecast. Weather courtesy of forecast.io.

Current aviation weather report (METAR) for East Midlands Airport

2024/05/25 23:50 (retrieved 30 minutes ago)

EGNX 252350Z 11007KT 9000 BKN006 12/11 Q1013

Closest aviation forecast (TAF) to East Midlands Airport

Forecast is more than 6 hours old.

Closest forecast is RAF Waddington, 35.3 nm (65.5 km) NE.

2024/05/25 18:18 (retrieved 6 hours ago)

TAF TAF EGXW 251912Z 2518/2612 CNL